createdAt,value
2018-01-30T00:00:44.594Z,21.64
2018-01-30T00:01:53.551Z,21.69
2018-01-30T00:03:02.779Z,21.65
2018-01-30T00:04:11.797Z,21.58
2018-01-30T00:05:21.020Z,21.61
2018-01-30T00:06:29.734Z,21.61
2018-01-30T00:07:38.986Z,21.67
2018-01-30T00:08:47.941Z,21.61
2018-01-30T00:09:56.657Z,21.58
2018-01-30T00:11:05.678Z,21.64
2018-01-30T00:12:14.699Z,21.58
2018-01-30T00:13:23.490Z,21.61
2018-01-30T00:14:32.754Z,21.58
2018-01-30T00:15:41.984Z,21.59
2018-01-30T00:16:50.708Z,21.61
2018-01-30T00:17:59.686Z,21.59
2018-01-30T00:19:09.177Z,21.53
2018-01-30T00:20:18.155Z,21.61
2018-01-30T00:21:26.876Z,21.54
2018-01-30T00:22:36.103Z,21.56
2018-01-30T00:23:45.313Z,21.58
2018-01-30T00:24:54.325Z,21.52
2018-01-30T00:26:03.825Z,21.54
2018-01-30T00:27:12.797Z,21.58
2018-01-30T00:28:21.511Z,21.53
2018-01-30T00:29:30.764Z,21.58
2018-01-30T00:30:39.733Z,21.58
2018-01-30T00:31:48.705Z,21.54
2018-01-30T00:32:57.675Z,21.46
2018-01-30T00:34:06.665Z,21.54
2018-01-30T00:35:15.634Z,21.56
2018-01-30T00:36:24.407Z,21.52
2018-01-30T00:37:33.682Z,21.53
2018-01-30T00:38:42.952Z,21.43
2018-01-30T00:39:51.958Z,21.53
2018-01-30T00:41:00.949Z,21.56
2018-01-30T00:42:10.194Z,21.49
2018-01-30T00:43:19.430Z,21.46
2018-01-30T00:44:28.729Z,21.47
2018-01-30T00:45:37.449Z,21.52
2018-01-30T00:46:46.151Z,21.44
2018-01-30T00:47:55.102Z,21.46
2018-01-30T00:49:03.805Z,21.44
2018-01-30T00:50:13.038Z,21.52
2018-01-30T00:51:22.278Z,21.49
2018-01-30T00:52:31.506Z,21.4
2018-01-30T00:53:40.487Z,21.52
2018-01-30T00:54:49.196Z,21.37
2018-01-30T00:55:58.152Z,21.4
2018-01-30T00:57:07.100Z,21.49
2018-01-30T00:58:16.334Z,21.4
2018-01-30T00:59:25.822Z,21.4
2018-01-30T01:00:35.040Z,21.37
2018-01-30T01:01:44.013Z,21.46
2018-01-30T01:02:53.008Z,21.38
2018-01-30T01:04:02.303Z,21.4
2018-01-30T01:05:11.797Z,21.44
2018-01-30T01:06:20.776Z,21.42
2018-01-30T01:07:30.038Z,21.43
2018-01-30T01:08:38.745Z,21.43
2018-01-30T01:09:47.700Z,21.38
2018-01-30T01:10:56.410Z,21.44
2018-01-30T01:12:05.624Z,21.42
2018-01-30T01:13:14.590Z,21.42
2018-01-30T01:14:23.833Z,21.42
2018-01-30T01:15:32.528Z,21.44
2018-01-30T01:16:42.051Z,21.44
2018-01-30T01:17:50.818Z,21.43
2018-01-30T01:18:59.791Z,21.46
2018-01-30T01:20:09.034Z,21.5
2018-01-30T01:21:18.012Z,21.47
2018-01-30T01:22:27.301Z,21.47
2018-01-30T01:23:36.267Z,21.44
2018-01-30T01:24:45.489Z,21.46
2018-01-30T01:25:54.177Z,21.38
2018-01-30T01:27:03.420Z,21.49
2018-01-30T01:28:12.378Z,21.38
2018-01-30T01:29:21.342Z,21.47
2018-01-30T01:30:30.555Z,21.44
2018-01-30T01:31:39.569Z,21.46
2018-01-30T01:32:48.795Z,21.46
2018-01-30T01:33:58.030Z,21.42
2018-01-30T01:35:07.540Z,21.42
2018-01-30T01:36:16.484Z,21.4
2018-01-30T01:37:25.174Z,21.4
2018-01-30T01:38:34.148Z,21.49
2018-01-30T01:39:43.383Z,21.42
2018-01-30T01:40:52.338Z,21.46
2018-01-30T01:42:01.050Z,21.4
2018-01-30T01:43:10.027Z,21.44
2018-01-30T01:44:19.801Z,21.49
2018-01-30T01:45:29.038Z,21.4
2018-01-30T01:46:38.287Z,21.38
2018-01-30T01:47:47.797Z,21.49
2018-01-30T01:48:56.490Z,21.47
2018-01-30T01:50:05.445Z,21.32
2018-01-30T01:51:14.240Z,21.44
2018-01-30T01:52:23.250Z,21.34
2018-01-30T01:53:32.232Z,21.44
2018-01-30T01:54:40.938Z,21.34
2018-01-30T01:55:49.953Z,21.34
2018-01-30T01:56:58.910Z,21.32
2018-01-30T01:58:07.612Z,21.37
2018-01-30T01:59:16.617Z,21.44
2018-01-30T02:00:25.593Z,21.4
2018-01-30T02:01:35.065Z,21.46
2018-01-30T02:02:43.772Z,21.37
2018-01-30T02:03:52.995Z,21.37
2018-01-30T02:05:01.679Z,21.34
2018-01-30T02:06:11.179Z,21.38
2018-01-30T02:07:20.142Z,21.32
2018-01-30T02:08:28.860Z,21.29
2018-01-30T02:09:38.417Z,21.35
2018-01-30T02:10:47.217Z,21.37
2018-01-30T02:11:56.181Z,21.37
2018-01-30T02:13:05.679Z,21.38
2018-01-30T02:14:14.387Z,21.34
2018-01-30T02:15:23.083Z,21.44
2018-01-30T02:16:31.797Z,21.35
2018-01-30T02:17:41.063Z,21.44
2018-01-30T02:18:50.030Z,21.35
2018-01-30T02:19:59.291Z,21.35
2018-01-30T02:21:08.012Z,21.4
2018-01-30T02:22:17.263Z,21.4
2018-01-30T02:23:26.500Z,21.37
2018-01-30T02:24:35.221Z,21.42
2018-01-30T02:25:43.951Z,21.35
2018-01-30T02:26:53.197Z,21.35
2018-01-30T02:28:01.904Z,21.37
2018-01-30T02:29:10.857Z,21.32
2018-01-30T02:30:20.373Z,21.31
2018-01-30T02:31:29.605Z,21.29
2018-01-30T02:32:38.303Z,21.34
2018-01-30T02:33:47.265Z,21.37
2018-01-30T02:34:56.736Z,21.28
2018-01-30T02:36:05.956Z,21.32
2018-01-30T02:37:15.181Z,21.35
2018-01-30T02:38:24.405Z,21.38
2018-01-30T02:39:33.381Z,21.29
2018-01-30T02:40:42.884Z,21.31
2018-01-30T02:41:51.863Z,21.29
2018-01-30T02:43:01.345Z,21.27
2018-01-30T02:44:10.309Z,21.25
2018-01-30T02:45:19.551Z,21.27
2018-01-30T02:46:28.780Z,21.28
2018-01-30T02:47:37.505Z,21.25
2018-01-30T02:48:47.022Z,21.25
2018-01-30T02:49:55.970Z,21.28
2018-01-30T02:51:05.225Z,21.34
2018-01-30T02:52:13.936Z,21.34
2018-01-30T02:53:23.444Z,21.29
2018-01-30T02:54:32.392Z,21.25
2018-01-30T02:55:41.642Z,21.32
2018-01-30T02:56:50.613Z,21.28
2018-01-30T02:57:59.573Z,21.28
2018-01-30T02:59:08.528Z,21.29
2018-01-30T03:00:17.526Z,21.27
2018-01-30T03:01:26.530Z,21.27
2018-01-30T03:02:35.488Z,21.32
2018-01-30T03:03:44.503Z,21.31
2018-01-30T03:04:53.459Z,21.31
2018-01-30T03:06:02.192Z,21.25
2018-01-30T03:07:11.409Z,21.24
2018-01-30T03:08:20.111Z,21.24
2018-01-30T03:09:29.606Z,21.29
2018-01-30T03:10:38.848Z,21.34
2018-01-30T03:11:47.821Z,21.28
2018-01-30T03:12:56.771Z,21.29
2018-01-30T03:14:05.986Z,21.34
2018-01-30T03:15:15.220Z,21.32
2018-01-30T03:16:23.924Z,21.37
2018-01-30T03:17:32.882Z,21.31
2018-01-30T03:18:41.844Z,21.35
2018-01-30T03:19:50.569Z,21.24
2018-01-30T03:20:59.545Z,21.24
2018-01-30T03:22:08.777Z,21.34
2018-01-30T03:23:17.477Z,21.27
2018-01-30T03:24:26.417Z,21.31
2018-01-30T03:25:35.377Z,21.34
2018-01-30T03:26:44.082Z,21.22
2018-01-30T03:27:52.771Z,21.24
2018-01-30T03:29:01.715Z,21.32
2018-01-30T03:30:10.673Z,21.32
2018-01-30T03:31:19.880Z,21.29
2018-01-30T03:32:28.838Z,21.29
2018-01-30T03:33:37.789Z,21.24
2018-01-30T03:34:46.745Z,21.22
2018-01-30T03:35:55.953Z,21.31
2018-01-30T03:37:05.177Z,21.22
2018-01-30T03:38:14.388Z,21.21
2018-01-30T03:39:23.374Z,21.19
2018-01-30T03:40:32.598Z,21.27
2018-01-30T03:41:41.548Z,21.24
2018-01-30T03:42:50.236Z,21.21
2018-01-30T03:43:58.929Z,21.27
2018-01-30T03:45:07.896Z,21.32
2018-01-30T03:46:17.381Z,21.16
2018-01-30T03:47:26.081Z,21.21
2018-01-30T03:48:35.353Z,21.28
2018-01-30T03:49:44.117Z,21.22
2018-01-30T03:50:53.601Z,21.24
2018-01-30T03:52:02.813Z,21.21
2018-01-30T03:53:11.776Z,21.24
2018-01-30T03:54:20.807Z,21.25
2018-01-30T03:55:29.778Z,21.27
2018-01-30T03:56:39.023Z,21.22
2018-01-30T03:57:47.975Z,21.21
2018-01-30T03:58:56.963Z,21.25
2018-01-30T04:00:06.508Z,21.22
2018-01-30T04:01:15.480Z,21.24
2018-01-30T04:02:24.197Z,21.21
2018-01-30T04:03:33.657Z,21.28
2018-01-30T04:04:42.339Z,21.22
2018-01-30T04:05:51.825Z,21.24
2018-01-30T04:07:01.049Z,21.17
2018-01-30T04:08:09.764Z,21.24
2018-01-30T04:09:18.723Z,21.21
2018-01-30T04:10:27.928Z,21.13
2018-01-30T04:11:37.397Z,21.19
2018-01-30T04:12:46.874Z,21.22
2018-01-30T04:13:55.562Z,21.21
2018-01-30T04:15:04.536Z,21.25
2018-01-30T04:16:13.530Z,21.27
2018-01-30T04:17:22.515Z,21.25
2018-01-30T04:18:31.464Z,21.17
2018-01-30T04:19:40.951Z,21.25
2018-01-30T04:20:50.186Z,21.17
2018-01-30T04:21:59.443Z,21.22
2018-01-30T04:23:08.397Z,21.21
2018-01-30T04:24:17.599Z,21.17
2018-01-30T04:25:26.310Z,21.16
2018-01-30T04:26:35.782Z,21.21
2018-01-30T04:27:45.056Z,21.12
2018-01-30T04:28:54.040Z,21.21
2018-01-30T04:30:02.735Z,21.14
2018-01-30T04:31:11.966Z,21.14
2018-01-30T04:32:21.173Z,21.21
2018-01-30T04:33:30.404Z,21.16
2018-01-30T04:34:39.912Z,21.13
2018-01-30T04:35:48.882Z,21.22
2018-01-30T04:36:58.458Z,21.14
2018-01-30T04:38:07.170Z,21.13
2018-01-30T04:39:16.763Z,21.14
2018-01-30T04:40:25.750Z,21.17
2018-01-30T04:41:34.529Z,21.14
2018-01-30T04:42:43.487Z,21.21
2018-01-30T04:43:52.711Z,21.21
2018-01-30T04:45:02.028Z,21.27
2018-01-30T04:46:11.336Z,21.14
2018-01-30T04:47:19.996Z,21.16
2018-01-30T04:48:29.249Z,21.16
2018-01-30T04:49:38.484Z,21.16
2018-01-30T04:50:47.410Z,21.16
2018-01-30T04:51:56.384Z,21.14
2018-01-30T04:53:05.343Z,21.16
2018-01-30T04:54:14.367Z,21.14
2018-01-30T04:55:23.847Z,21.16
2018-01-30T04:56:32.558Z,21.16
2018-01-30T04:57:41.253Z,21.14
2018-01-30T04:58:50.791Z,21.16
2018-01-30T04:59:59.774Z,21.16
2018-01-30T05:01:08.739Z,21.17
2018-01-30T05:02:17.700Z,21.16
2018-01-30T05:03:26.666Z,21.1
2018-01-30T05:04:35.359Z,21.17
2018-01-30T05:05:44.057Z,21.13
2018-01-30T05:06:53.295Z,21.09
2018-01-30T05:08:02.244Z,21.16
2018-01-30T05:09:11.225Z,21.1
2018-01-30T05:10:19.937Z,21.09
2018-01-30T05:11:29.177Z,21.09
2018-01-30T05:12:38.683Z,21.17
2018-01-30T05:13:47.725Z,21.13
2018-01-30T05:14:56.972Z,21.13
2018-01-30T05:16:05.931Z,21.14
2018-01-30T05:17:14.973Z,21.1
2018-01-30T05:18:23.931Z,21.14
2018-01-30T05:19:32.923Z,21.09
2018-01-30T05:20:41.951Z,21.13
2018-01-30T05:21:51.175Z,21.14
2018-01-30T05:23:00.449Z,21.12
2018-01-30T05:24:09.699Z,21.12
2018-01-30T05:25:18.461Z,21.14
2018-01-30T05:26:27.168Z,21.17
2018-01-30T05:27:36.140Z,21.17
2018-01-30T05:28:45.412Z,21.14
2018-01-30T05:29:54.943Z,21.14
2018-01-30T05:31:03.912Z,21.1
2018-01-30T05:32:13.151Z,21.07
2018-01-30T05:33:22.392Z,21.17
2018-01-30T05:34:31.602Z,21.16
2018-01-30T05:35:40.825Z,21.21
2018-01-30T05:36:49.868Z,21.14
2018-01-30T05:37:59.116Z,21.13
2018-01-30T05:39:07.827Z,21.21
2018-01-30T05:40:16.795Z,21.22
2018-01-30T05:41:26.080Z,21.22
2018-01-30T05:42:35.577Z,21.32
2018-01-30T05:43:44.297Z,21.35
2018-01-30T05:44:53.597Z,21.43
2018-01-30T05:46:03.133Z,21.5
2018-01-30T05:47:11.839Z,21.58
2018-01-30T05:48:21.065Z,21.64
2018-01-30T05:49:30.336Z,21.69
2018-01-30T05:50:39.061Z,21.77
2018-01-30T05:51:48.534Z,21.84
2018-01-30T05:52:57.247Z,21.91
2018-01-30T05:54:06.194Z,21.98
2018-01-30T05:55:15.171Z,22.02
2018-01-30T05:56:23.862Z,21.96
2018-01-30T05:57:33.101Z,22.09
2018-01-30T05:58:42.055Z,22.02
2018-01-30T05:59:51.015Z,22.06
2018-01-30T06:01:00.077Z,22.21
2018-01-30T06:02:09.047Z,22.22
2018-01-30T06:03:17.777Z,22.24
2018-01-30T06:04:27.003Z,22.33
2018-01-30T06:05:36.214Z,22.3
2018-01-30T06:06:45.187Z,22.35
2018-01-30T06:07:54.405Z,22.37
2018-01-30T06:09:03.934Z,22.42
2018-01-30T06:10:12.905Z,22.52
2018-01-30T06:11:21.867Z,22.55
2018-01-30T06:12:30.657Z,22.57
2018-01-30T06:13:39.607Z,22.58
2018-01-30T06:14:48.348Z,22.58
2018-01-30T06:15:57.044Z,22.67
2018-01-30T06:17:06.266Z,22.72
2018-01-30T06:18:15.762Z,22.68
2018-01-30T06:19:24.728Z,22.73
2018-01-30T06:20:33.979Z,22.76
2018-01-30T06:21:42.977Z,22.76
2018-01-30T06:22:51.711Z,22.85
2018-01-30T06:24:00.415Z,22.9
2018-01-30T06:25:09.659Z,22.91
2018-01-30T06:26:18.377Z,22.92
2018-01-30T06:27:27.856Z,23.09
2018-01-30T06:28:37.342Z,23.07
2018-01-30T06:29:46.620Z,23.07
2018-01-30T06:30:55.328Z,23.16
2018-01-30T06:32:04.814Z,23.19
2018-01-30T06:33:13.495Z,23.16
2018-01-30T06:34:22.191Z,23.23
2018-01-30T06:35:30.896Z,23.28
2018-01-30T06:36:40.165Z,23.38
2018-01-30T06:37:49.649Z,23.31
2018-01-30T06:38:58.343Z,23.4
2018-01-30T06:40:07.865Z,23.42
2018-01-30T06:41:17.375Z,23.4
2018-01-30T06:42:26.365Z,23.5
2018-01-30T06:43:35.622Z,23.53
2018-01-30T06:44:44.329Z,23.53
2018-01-30T06:45:53.549Z,23.54
2018-01-30T06:47:02.781Z,23.61
2018-01-30T06:48:11.770Z,23.58
2018-01-30T06:49:21.009Z,23.63
2018-01-30T06:50:30.224Z,23.63
2018-01-30T06:51:39.481Z,23.61
2018-01-30T06:52:48.715Z,23.78
2018-01-30T06:53:57.951Z,23.79
2018-01-30T06:55:07.434Z,23.75
2018-01-30T06:56:16.387Z,23.73
2018-01-30T06:57:25.949Z,23.83
2018-01-30T06:58:35.217Z,23.84
2018-01-30T06:59:44.431Z,23.83
2018-01-30T07:00:53.126Z,23.79
2018-01-30T07:02:02.131Z,23.83
2018-01-30T07:03:10.845Z,23.78
2018-01-30T07:04:19.542Z,23.75
2018-01-30T07:05:29.557Z,23.83
2018-01-30T07:06:38.808Z,23.73
2018-01-30T07:07:47.793Z,23.73
2018-01-30T07:08:57.046Z,23.79
2018-01-30T07:10:05.727Z,23.6
2018-01-30T07:11:14.941Z,23.31
2018-01-30T07:12:24.174Z,23.07
2018-01-30T07:13:33.719Z,22.7
2018-01-30T07:14:43.206Z,22.46
2018-01-30T07:15:52.435Z,22.28
2018-01-30T07:17:01.383Z,22.22
2018-01-30T07:18:10.641Z,22.22
2018-01-30T07:19:19.661Z,22.21
2018-01-30T07:20:29.142Z,22.14
2018-01-30T07:21:37.844Z,22.2
2018-01-30T07:22:47.089Z,22.1
2018-01-30T07:23:56.320Z,22.21
2018-01-30T07:25:05.068Z,22.21
2018-01-30T07:26:13.763Z,22.22
2018-01-30T07:27:22.980Z,22.17
2018-01-30T07:28:31.993Z,22.24
2018-01-30T07:29:40.719Z,22.22
2018-01-30T07:30:49.441Z,22.28
2018-01-30T07:31:58.414Z,22.27
2018-01-30T07:33:07.095Z,22.18
2018-01-30T07:34:15.793Z,22.22
2018-01-30T07:35:25.000Z,22.27
2018-01-30T07:36:33.966Z,22.25
2018-01-30T07:37:42.927Z,22.3
2018-01-30T07:38:52.144Z,22.22
2018-01-30T07:40:01.154Z,22.21
2018-01-30T07:41:10.122Z,22.2
2018-01-30T07:42:18.973Z,22.25
2018-01-30T07:43:28.252Z,22.25
2018-01-30T07:44:37.561Z,22.25
2018-01-30T07:45:46.837Z,22.22
2018-01-30T07:46:55.829Z,22.25
2018-01-30T07:48:04.798Z,22.25
2018-01-30T07:49:14.300Z,22.18
2018-01-30T07:50:23.283Z,22.22
2018-01-30T07:51:32.528Z,22.2
2018-01-30T07:52:41.293Z,22.22
2018-01-30T07:53:50.506Z,22.15
2018-01-30T07:54:59.492Z,22.18
2018-01-30T07:56:08.722Z,22.21
2018-01-30T07:57:17.965Z,22.22
2018-01-30T07:58:27.450Z,22.2
2018-01-30T07:59:36.668Z,22.14
2018-01-30T08:00:45.397Z,22.12
2018-01-30T08:01:54.427Z,22.17
2018-01-30T08:03:03.067Z,22.18
2018-01-30T08:04:12.022Z,22.1
2018-01-30T08:05:21.008Z,22.1
2018-01-30T08:06:29.717Z,22
2018-01-30T08:07:39.193Z,22.07
2018-01-30T08:08:48.421Z,22.09
2018-01-30T08:09:57.389Z,22.05
2018-01-30T08:11:06.358Z,22.09
2018-01-30T08:12:15.345Z,22.1
2018-01-30T08:13:24.349Z,22.03
2018-01-30T08:14:33.567Z,22.07
2018-01-30T08:15:42.808Z,21.99
2018-01-30T08:16:52.567Z,21.96
2018-01-30T08:18:01.527Z,22.05
2018-01-30T08:19:10.499Z,21.98
2018-01-30T08:20:19.993Z,22.05
2018-01-30T08:21:28.956Z,21.91
2018-01-30T08:22:37.906Z,21.96
2018-01-30T08:23:46.618Z,21.98
2018-01-30T08:24:55.604Z,22
2018-01-30T08:26:04.858Z,21.96
2018-01-30T08:27:14.101Z,21.98
2018-01-30T08:28:23.583Z,21.99
2018-01-30T08:29:32.530Z,21.96
2018-01-30T08:30:41.541Z,22.03
2018-01-30T08:31:50.453Z,22.05
2018-01-30T08:32:59.392Z,21.94
2018-01-30T08:34:08.101Z,21.9
2018-01-30T08:35:16.804Z,22
2018-01-30T08:36:25.843Z,21.98
2018-01-30T08:37:34.542Z,21.92
2018-01-30T08:38:43.519Z,21.98
2018-01-30T08:39:52.493Z,21.88
2018-01-30T08:41:01.748Z,21.86
2018-01-30T08:42:10.776Z,21.94
2018-01-30T08:43:19.750Z,21.94
2018-01-30T08:44:28.720Z,22
2018-01-30T08:45:37.454Z,21.84
2018-01-30T08:46:46.168Z,22
2018-01-30T08:47:55.444Z,21.96
2018-01-30T08:49:04.701Z,21.91
2018-01-30T08:50:13.708Z,21.9
2018-01-30T08:51:22.708Z,21.86
2018-01-30T08:52:31.974Z,21.9
2018-01-30T08:53:40.747Z,21.86
2018-01-30T08:54:49.712Z,21.9
2018-01-30T08:55:58.521Z,21.9
2018-01-30T08:57:07.560Z,21.9
2018-01-30T08:58:16.277Z,21.91
2018-01-30T08:59:25.570Z,21.94
2018-01-30T09:00:34.793Z,21.88
2018-01-30T09:01:43.521Z,21.9
2018-01-30T09:02:53.047Z,21.88
2018-01-30T09:04:01.818Z,21.84
2018-01-30T09:05:11.299Z,21.94
2018-01-30T09:06:20.070Z,21.94
2018-01-30T09:07:29.079Z,21.92
2018-01-30T09:08:38.399Z,21.94
2018-01-30T09:09:47.468Z,21.91
2018-01-30T09:10:56.792Z,21.84
2018-01-30T09:12:06.517Z,21.86
2018-01-30T09:13:15.318Z,21.88
2018-01-30T09:14:24.410Z,21.92
2018-01-30T09:15:33.672Z,21.94
2018-01-30T09:16:43.824Z,21.88
2018-01-30T09:17:52.878Z,21.9
2018-01-30T09:19:01.920Z,21.91
2018-01-30T09:20:11.032Z,21.91
2018-01-30T09:21:20.343Z,21.91
2018-01-30T09:22:29.357Z,21.91
2018-01-30T09:23:38.375Z,21.9
2018-01-30T09:24:47.662Z,21.92
2018-01-30T09:25:56.392Z,21.92
2018-01-30T09:27:05.465Z,21.88
2018-01-30T09:28:15.069Z,21.88
2018-01-30T09:29:24.112Z,21.91
2018-01-30T09:30:33.728Z,21.88
2018-01-30T09:31:42.760Z,21.86
2018-01-30T09:32:52.059Z,21.91
2018-01-30T09:34:01.104Z,21.91
2018-01-30T09:35:10.191Z,21.94
2018-01-30T09:36:19.193Z,21.92
2018-01-30T09:37:27.955Z,21.9
2018-01-30T09:38:36.931Z,21.86
2018-01-30T09:39:46.274Z,21.91
2018-01-30T09:40:55.032Z,21.88
2018-01-30T09:42:04.091Z,21.98
2018-01-30T09:43:13.367Z,21.96
2018-01-30T09:44:22.165Z,21.96
2018-01-30T09:45:31.410Z,21.88
2018-01-30T09:46:40.435Z,21.88
2018-01-30T09:47:49.184Z,21.9
2018-01-30T09:48:58.470Z,21.9
2018-01-30T09:50:07.265Z,21.86
2018-01-30T09:51:16.116Z,21.9
2018-01-30T09:52:25.707Z,21.83
2018-01-30T09:53:34.744Z,21.91
2018-01-30T09:54:43.761Z,21.86
2018-01-30T09:55:53.063Z,21.92
2018-01-30T09:57:02.643Z,21.88
2018-01-30T09:58:11.508Z,21.91
2018-01-30T09:59:20.566Z,21.86
2018-01-30T10:00:30.097Z,21.98
2018-01-30T10:01:39.188Z,21.9
2018-01-30T10:02:48.195Z,21.9
2018-01-30T10:03:56.932Z,21.9
2018-01-30T10:05:05.636Z,21.82
2018-01-30T10:06:14.853Z,21.88
2018-01-30T10:07:23.825Z,21.91
2018-01-30T10:08:32.790Z,21.9
2018-01-30T10:09:42.014Z,21.86
2018-01-30T10:10:50.702Z,21.96
2018-01-30T10:11:59.676Z,21.84
2018-01-30T10:13:08.620Z,21.9
2018-01-30T10:14:17.819Z,21.8
2018-01-30T10:15:27.045Z,21.86
2018-01-30T10:16:36.251Z,21.86
2018-01-30T10:17:45.471Z,21.86
2018-01-30T10:18:54.185Z,21.82
2018-01-30T10:20:03.979Z,21.82
2018-01-30T10:21:12.939Z,21.9
2018-01-30T10:22:21.631Z,21.91
2018-01-30T10:23:30.588Z,21.83
2018-01-30T10:24:39.554Z,21.98
2018-01-30T10:25:48.239Z,21.9
2018-01-30T10:26:57.188Z,21.86
2018-01-30T10:28:05.894Z,21.86
2018-01-30T10:29:15.106Z,21.91
2018-01-30T10:30:24.063Z,21.94
2018-01-30T10:31:32.751Z,21.92
2018-01-30T10:32:41.981Z,21.92
2018-01-30T10:33:50.685Z,21.9
2018-01-30T10:34:59.633Z,21.91
2018-01-30T10:36:08.605Z,21.88
2018-01-30T10:37:17.806Z,21.94
2018-01-30T10:38:26.757Z,21.91
2018-01-30T10:39:35.986Z,21.9
2018-01-30T10:40:44.973Z,21.84
2018-01-30T10:41:54.221Z,21.91
2018-01-30T10:43:03.189Z,21.84
2018-01-30T10:44:12.186Z,21.84
2018-01-30T10:45:21.496Z,21.91
2018-01-30T10:46:30.290Z,21.91
2018-01-30T10:47:39.064Z,21.91
2018-01-30T10:48:47.860Z,21.86
2018-01-30T10:49:57.431Z,21.9
2018-01-30T10:51:06.793Z,21.96
2018-01-30T10:52:15.618Z,21.96
2018-01-30T10:53:24.890Z,21.99
2018-01-30T10:54:33.925Z,21.96
2018-01-30T10:55:42.998Z,22.02
2018-01-30T10:56:52.259Z,22
2018-01-30T10:58:01.315Z,21.96
2018-01-30T10:59:10.117Z,21.98
2018-01-30T11:00:19.657Z,22.03
2018-01-30T11:01:28.421Z,21.99
2018-01-30T11:02:37.678Z,21.96
2018-01-30T11:03:46.470Z,21.98
2018-01-30T11:04:55.487Z,21.94
2018-01-30T11:06:04.455Z,21.94
2018-01-30T11:07:13.471Z,22
2018-01-30T11:08:22.533Z,21.9
2018-01-30T11:09:31.362Z,21.96
2018-01-30T11:10:40.156Z,22.03
2018-01-30T11:11:49.249Z,21.98
2018-01-30T11:12:58.311Z,22.05
2018-01-30T11:14:07.877Z,22.09
2018-01-30T11:15:16.714Z,22.02
2018-01-30T11:16:25.722Z,22.09
2018-01-30T11:17:34.460Z,22.09
2018-01-30T11:18:43.446Z,22.06
2018-01-30T11:19:52.182Z,22.07
2018-01-30T11:21:00.872Z,22.07
2018-01-30T11:22:10.207Z,22.17
2018-01-30T11:23:18.900Z,22.03
2018-01-30T11:24:27.605Z,22.15
2018-01-30T11:25:36.292Z,22.09
2018-01-30T11:26:44.990Z,22.1
2018-01-30T11:27:54.234Z,22.03
2018-01-30T11:29:03.313Z,22.12
2018-01-30T11:30:12.019Z,22.07
2018-01-30T11:31:20.963Z,22.09
2018-01-30T11:32:30.178Z,22.1
2018-01-30T11:33:39.137Z,22.05
2018-01-30T11:34:47.916Z,22.05
2018-01-30T11:35:56.647Z,22.06
2018-01-30T11:37:05.908Z,22.09
2018-01-30T11:38:15.155Z,22.09
2018-01-30T11:39:23.888Z,22
2018-01-30T11:40:33.117Z,22.1
2018-01-30T11:41:42.076Z,22.09
2018-01-30T11:42:51.078Z,22.07
2018-01-30T11:44:00.063Z,22.1
2018-01-30T11:45:09.061Z,22.07
2018-01-30T11:46:18.049Z,22.07
2018-01-30T11:47:27.269Z,22
2018-01-30T11:48:36.057Z,22.15
2018-01-30T11:49:45.227Z,22.06
2018-01-30T11:50:54.197Z,22.14
2018-01-30T11:52:03.196Z,22.15
2018-01-30T11:53:11.926Z,22.18
2018-01-30T11:54:20.991Z,22.17
2018-01-30T11:55:30.253Z,22.2
2018-01-30T11:56:38.924Z,22.12
2018-01-30T11:57:48.151Z,22.17
2018-01-30T11:58:56.851Z,22.2
2018-01-30T12:00:05.794Z,22.18
2018-01-30T12:01:14.741Z,22.15
2018-01-30T12:02:23.993Z,22.03
2018-01-30T12:03:33.548Z,22.15
2018-01-30T12:04:42.547Z,22.14
2018-01-30T12:05:51.331Z,22.2
2018-01-30T12:07:00.349Z,22.14
2018-01-30T12:08:09.680Z,22.07
2018-01-30T12:09:18.730Z,22.02
2018-01-30T12:10:27.753Z,22.05
2018-01-30T12:11:36.771Z,22.05
2018-01-30T12:12:45.819Z,22.06
2018-01-30T12:13:54.631Z,22.06
2018-01-30T12:15:03.629Z,22.05
2018-01-30T12:16:12.699Z,21.98
2018-01-30T12:17:21.803Z,22.05
2018-01-30T12:18:30.643Z,22.03
2018-01-30T12:19:39.710Z,22.02
2018-01-30T12:20:48.787Z,22.07
2018-01-30T12:21:57.543Z,22.07
2018-01-30T12:23:06.561Z,22
2018-01-30T12:24:15.588Z,22.05
2018-01-30T12:25:24.814Z,21.96
2018-01-30T12:26:33.798Z,21.98
2018-01-30T12:27:43.369Z,21.98
2018-01-30T12:28:53.248Z,21.94
2018-01-30T12:30:02.263Z,21.92
2018-01-30T12:31:11.213Z,22.02
2018-01-30T12:32:20.249Z,22.02
2018-01-30T12:33:29.062Z,21.96
2018-01-30T12:34:38.002Z,21.99
2018-01-30T12:35:46.980Z,21.96
2018-01-30T12:36:55.687Z,22.02
2018-01-30T12:38:04.761Z,21.96
2018-01-30T12:39:13.800Z,22
2018-01-30T12:40:22.555Z,21.9
2018-01-30T12:41:31.547Z,21.9
2018-01-30T12:42:41.056Z,21.99
2018-01-30T12:43:50.306Z,21.98
2018-01-30T12:44:59.512Z,21.91
2018-01-30T12:46:08.730Z,21.96
2018-01-30T12:47:17.421Z,21.86
2018-01-30T12:48:26.185Z,21.96
2018-01-30T12:49:35.414Z,21.9
2018-01-30T12:50:44.102Z,21.98
2018-01-30T12:51:53.045Z,21.91
2018-01-30T12:53:02.002Z,21.92
2018-01-30T12:54:10.981Z,21.9
2018-01-30T12:55:19.795Z,21.92
2018-01-30T12:56:28.834Z,21.92
2018-01-30T12:57:37.876Z,21.92
2018-01-30T12:58:46.866Z,21.9
2018-01-30T12:59:55.849Z,21.94
2018-01-30T13:01:04.854Z,21.8
2018-01-30T13:02:13.834Z,21.91
2018-01-30T13:03:22.600Z,21.86
2018-01-30T13:04:31.586Z,21.83
2018-01-30T13:05:40.567Z,21.9
2018-01-30T13:06:49.797Z,21.9
2018-01-30T13:07:58.840Z,21.79
2018-01-30T13:09:08.105Z,21.79
2018-01-30T13:10:17.646Z,21.91
2018-01-30T13:11:26.369Z,21.98
2018-01-30T13:12:35.581Z,21.92
2018-01-30T13:13:44.548Z,21.91
2018-01-30T13:14:53.541Z,21.98
2018-01-30T13:16:02.751Z,21.92
2018-01-30T13:17:11.957Z,21.9
2018-01-30T13:18:20.658Z,21.98
2018-01-30T13:19:29.937Z,21.9
2018-01-30T13:20:38.953Z,21.83
2018-01-30T13:21:47.946Z,21.91
2018-01-30T13:22:56.665Z,21.88
2018-01-30T13:24:05.446Z,21.9
2018-01-30T13:25:14.203Z,21.91
2018-01-30T13:26:23.191Z,21.98
2018-01-30T13:27:31.878Z,21.98
2018-01-30T13:28:41.353Z,21.91
2018-01-30T13:29:50.571Z,21.9
2018-01-30T13:30:59.332Z,21.92
2018-01-30T13:32:08.029Z,21.84
2018-01-30T13:33:16.732Z,21.88
2018-01-30T13:34:25.725Z,21.9
2018-01-30T13:35:35.002Z,21.91
2018-01-30T13:36:44.018Z,21.9
2018-01-30T13:37:52.812Z,21.88
2018-01-30T13:39:01.857Z,21.91
2018-01-30T13:40:11.140Z,21.94
2018-01-30T13:41:20.350Z,21.82
2018-01-30T13:42:29.868Z,21.9
2018-01-30T13:43:38.662Z,21.88
2018-01-30T13:44:47.641Z,21.9
2018-01-30T13:45:56.739Z,21.99
2018-01-30T13:47:05.722Z,21.99
2018-01-30T13:48:14.451Z,21.9
2018-01-30T13:49:23.997Z,22
2018-01-30T13:50:33.049Z,21.92
2018-01-30T13:51:42.105Z,21.98
2018-01-30T13:52:51.609Z,21.9
2018-01-30T13:54:00.297Z,21.96
2018-01-30T13:55:09.248Z,21.94
2018-01-30T13:56:18.207Z,21.9
2018-01-30T13:57:27.173Z,21.86
2018-01-30T13:58:36.631Z,21.96
2018-01-30T13:59:45.847Z,21.86
2018-01-30T14:00:55.368Z,21.91
2018-01-30T14:02:04.587Z,21.94
2018-01-30T14:03:13.794Z,21.8
2018-01-30T14:04:23.777Z,21.96
2018-01-30T14:05:32.723Z,21.84
2018-01-30T14:06:41.674Z,21.94
2018-01-30T14:07:50.358Z,21.86
2018-01-30T14:08:59.596Z,21.84
2018-01-30T14:10:08.558Z,21.9
2018-01-30T14:11:17.520Z,21.86
2018-01-30T14:12:26.481Z,21.86
2018-01-30T14:13:35.442Z,21.92
2018-01-30T14:14:44.151Z,21.86
2018-01-30T14:15:53.610Z,21.9
2018-01-30T14:17:02.614Z,21.96
2018-01-30T14:18:11.326Z,21.88
2018-01-30T14:19:20.295Z,21.88
2018-01-30T14:20:29.556Z,21.98
2018-01-30T14:21:38.498Z,21.92
2018-01-30T14:22:47.467Z,21.91
2018-01-30T14:23:56.243Z,21.94
2018-01-30T14:25:05.715Z,21.94
2018-01-30T14:26:14.938Z,21.9
2018-01-30T14:27:23.937Z,21.94
2018-01-30T14:28:32.646Z,21.92
2018-01-30T14:29:41.333Z,21.94
2018-01-30T14:30:50.290Z,21.88
2018-01-30T14:31:59.758Z,21.92
2018-01-30T14:33:09.269Z,21.9
2018-01-30T14:34:17.960Z,21.91
2018-01-30T14:35:26.901Z,21.88
2018-01-30T14:36:35.586Z,21.88
2018-01-30T14:37:45.076Z,21.88
2018-01-30T14:38:53.759Z,21.91
2018-01-30T14:40:02.742Z,21.91
2018-01-30T14:41:11.701Z,21.88
2018-01-30T14:42:20.656Z,21.9
2018-01-30T14:43:29.610Z,21.86
2018-01-30T14:44:38.915Z,21.98
2018-01-30T14:45:48.384Z,21.84
2018-01-30T14:46:57.345Z,21.9
2018-01-30T14:48:06.287Z,21.83
2018-01-30T14:49:15.239Z,21.82
2018-01-30T14:50:24.521Z,21.79
2018-01-30T14:51:33.243Z,21.8
2018-01-30T14:52:42.452Z,21.77
2018-01-30T14:53:51.670Z,21.82